createdAt,value
2023-02-04T00:01:10.754Z,98804.30
2023-02-04T00:04:16.748Z,98802.23
2023-02-04T00:07:20.889Z,98806.86
2023-02-04T00:10:26.080Z,98809.56
2023-02-04T00:13:28.825Z,98809.05
2023-02-04T00:16:31.485Z,98804.98
2023-02-04T00:19:35.665Z,98800.91
2023-02-04T00:22:37.982Z,98795.67
2023-02-04T00:25:41.539Z,98794.09
2023-02-04T00:28:45.581Z,98795.48
2023-02-04T00:31:51.669Z,98799.23
2023-02-04T00:34:56.619Z,98798.88
2023-02-04T00:38:09.056Z,98797.32
2023-02-04T00:41:11.847Z,98797.33
2023-02-04T00:44:17.716Z,98798.73
2023-02-04T00:47:21.429Z,98797.02
2023-02-04T00:50:25.851Z,98791.36
2023-02-04T00:53:29.013Z,98789.66
2023-02-04T00:56:35.691Z,98788.33
2023-02-04T00:59:41.384Z,98790.73
2023-02-04T01:02:49.966Z,98795.25
2023-02-04T01:05:52.650Z,98791.30
2023-02-04T01:08:58.005Z,98792.41
2023-02-04T01:12:02.918Z,98791.88
2023-02-04T01:15:07.485Z,98792.54
2023-02-04T01:18:14.045Z,98793.38
2023-02-04T01:21:20.134Z,98794.08
2023-02-04T01:24:43.124Z,98794.10
2023-02-04T01:28:08.782Z,98791.32
2023-02-04T01:31:12.979Z,98791.47
2023-02-04T01:34:21.293Z,98790.48
2023-02-04T01:37:26.440Z,98790.02
2023-02-04T01:40:29.710Z,98790.30
2023-02-04T01:43:35.068Z,98786.93
2023-02-04T01:46:39.858Z,98788.30
2023-02-04T01:49:42.925Z,98788.42
2023-02-04T01:52:47.696Z,98783.46
2023-02-04T01:55:51.143Z,98781.63
2023-02-04T01:58:57.207Z,98780.46
2023-02-04T02:02:03.807Z,98775.04
2023-02-04T02:05:14.563Z,98777.91
2023-02-04T02:08:18.136Z,98782.66
2023-02-04T02:11:21.900Z,98778.02
2023-02-04T02:14:29.068Z,98776.48
2023-02-04T02:17:34.951Z,98780.88
2023-02-04T02:20:37.982Z,98777.93
2023-02-04T02:23:48.265Z,98779.73
2023-02-04T02:26:51.590Z,98787.50
2023-02-04T02:29:55.474Z,98782.39
2023-02-04T02:32:58.217Z,98780.19
2023-02-04T02:36:02.139Z,98781.31
2023-02-04T02:39:05.128Z,98781.52
2023-02-04T02:42:17.144Z,98784.06
2023-02-04T02:45:29.986Z,98783.14
2023-02-04T02:48:33.675Z,98786.11
2023-02-04T02:51:37.198Z,98788.07
2023-02-04T02:54:40.974Z,98784.64
2023-02-04T02:57:46.455Z,98784.62
2023-02-04T03:00:48.994Z,98787.39
2023-02-04T03:03:53.222Z,98795.72
2023-02-04T03:06:57.081Z,98795.03
2023-02-04T03:10:00.822Z,98794.95
2023-02-04T03:13:05.364Z,98797.59
2023-02-04T03:16:08.493Z,98800.15
2023-02-04T03:19:13.106Z,98801.05
2023-02-04T03:22:17.594Z,98797.58
2023-02-04T03:25:24.235Z,98799.09
2023-02-04T03:28:29.879Z,98802.25
2023-02-04T03:31:35.311Z,98800.69
2023-02-04T03:34:39.288Z,98796.42
2023-02-04T03:37:44.828Z,98796.27
2023-02-04T03:40:47.923Z,98799.56
2023-02-04T03:43:53.181Z,98799.69
2023-02-04T03:46:56.834Z,98804.14
2023-02-04T03:49:59.105Z,98806.49
2023-02-04T03:53:04.955Z,98808.72
2023-02-04T03:56:11.642Z,98804.56
2023-02-04T03:59:16.180Z,98807.88
2023-02-04T04:02:20.130Z,98806.83
2023-02-04T04:05:24.577Z,98807.40
2023-02-04T04:08:26.758Z,98811.61
2023-02-04T04:11:31.039Z,98811.58
2023-02-04T04:14:33.736Z,98813.89
2023-02-04T04:17:38.832Z,98817.02
2023-02-04T04:20:43.848Z,98821.59
2023-02-04T04:23:47.220Z,98822.70
2023-02-04T04:26:51.102Z,98825.96
2023-02-04T04:29:54.572Z,98825.80
2023-02-04T04:32:56.711Z,98831.45
2023-02-04T04:36:00.119Z,98836.65
2023-02-04T04:39:06.013Z,98836.98
2023-02-04T04:42:09.431Z,98838.69
2023-02-04T04:45:14.494Z,98843.19
2023-02-04T04:48:17.795Z,98842.39
2023-02-04T04:51:21.722Z,98846.63
2023-02-04T04:54:24.044Z,98845.35
2023-02-04T04:57:27.174Z,98850.77
2023-02-04T05:00:32.275Z,98855.55
2023-02-04T05:03:39.401Z,98860.91
2023-02-04T05:06:42.259Z,98864.90
2023-02-04T05:09:46.373Z,98868.91
2023-02-04T05:12:52.576Z,98872.13
2023-02-04T05:15:59.664Z,98876.29
2023-02-04T05:19:07.356Z,98878.02
2023-02-04T05:22:12.497Z,98881.13
2023-02-04T05:25:16.494Z,98891.34
2023-02-04T05:28:20.384Z,98893.81
2023-02-04T05:31:24.594Z,98894.92
2023-02-04T05:34:31.371Z,98898.15
2023-02-04T05:37:34.268Z,98900.09
2023-02-04T05:40:40.526Z,98904.41
2023-02-04T05:43:44.897Z,98903.70
2023-02-04T05:46:51.305Z,98906.53
2023-02-04T05:49:55.592Z,98911.02
2023-02-04T05:52:58.230Z,98912.69
2023-02-04T05:56:06.190Z,98921.87
2023-02-04T05:59:08.804Z,98929.77
2023-02-04T06:02:14.412Z,98934.09
2023-02-04T06:05:17.949Z,98934.66
2023-02-04T06:08:24.696Z,98940.54
2023-02-04T06:11:30.998Z,98940.73
2023-02-04T06:14:36.965Z,98943.89
2023-02-04T06:17:40.666Z,98942.80
2023-02-04T06:20:45.583Z,98947.17
2023-02-04T06:23:52.349Z,98951.33
2023-02-04T06:26:56.397Z,98950.89
2023-02-04T06:30:00.988Z,98952.87
2023-02-04T06:33:12.914Z,98953.88
2023-02-04T06:36:19.381Z,98960.66
2023-02-04T06:39:28.304Z,98960.56
2023-02-04T06:42:31.702Z,98962.57
2023-02-04T06:45:38.172Z,98967.15
2023-02-04T06:48:41.835Z,98970.61
2023-02-04T06:51:45.392Z,98973.95
2023-02-04T06:54:48.477Z,98975.98
2023-02-04T06:57:51.410Z,98976.48
2023-02-04T07:00:56.129Z,98983.21
2023-02-04T07:04:01.554Z,98988.05
2023-02-04T07:07:06.334Z,98992.15
2023-02-04T07:10:10.203Z,98992.64
2023-02-04T07:13:35.915Z,98992.52
2023-02-04T07:16:39.402Z,98990.13
2023-02-04T07:19:43.482Z,98996.53
2023-02-04T07:22:47.166Z,98995.49
2023-02-04T07:25:55.939Z,99005.09
2023-02-04T07:28:59.163Z,99005.21
2023-02-04T07:32:04.043Z,99002.27
2023-02-04T07:35:06.790Z,99002.13
2023-02-04T07:38:11.434Z,99001.77
2023-02-04T07:41:15.051Z,99002.36
2023-02-04T07:44:18.259Z,98999.91
2023-02-04T07:47:21.838Z,98996.65
2023-02-04T07:50:26.367Z,98999.20
2023-02-04T07:53:29.646Z,99005.96
2023-02-04T07:56:33.934Z,99008.48
2023-02-04T07:59:36.555Z,99008.72
2023-02-04T08:02:38.721Z,99011.18
2023-02-04T08:05:43.090Z,99015.86
2023-02-04T08:08:48.709Z,99015.16
2023-02-04T08:11:51.939Z,99016.27
2023-02-04T08:14:56.661Z,99020.41
2023-02-04T08:18:00.415Z,99021.33
2023-02-04T08:21:05.818Z,99024.43
2023-02-04T08:24:12.596Z,99024.10
2023-02-04T08:27:17.980Z,99026.48
2023-02-04T08:30:21.623Z,99031.60
2023-02-04T08:33:26.230Z,99032.10
2023-02-04T08:36:28.315Z,99039.27
2023-02-04T08:39:37.854Z,99039.73
2023-02-04T08:42:43.595Z,99048.86
2023-02-04T08:45:46.152Z,99051.39
2023-02-04T08:48:49.612Z,99054.34
2023-02-04T08:51:55.673Z,99053.14
2023-02-04T08:54:59.070Z,99054.55
2023-02-04T08:58:03.583Z,99053.70
2023-02-04T09:01:11.632Z,99056.48
2023-02-04T09:04:15.724Z,99052.51
2023-02-04T09:07:20.423Z,99056.95
2023-02-04T09:10:24.535Z,99057.89
2023-02-04T09:13:30.872Z,99065.58
2023-02-04T09:16:37.707Z,99063.53
2023-02-04T09:19:41.938Z,99062.52
2023-02-04T09:22:44.780Z,99058.11
2023-02-04T09:25:47.506Z,99057.31
2023-02-04T09:28:52.092Z,99054.83
2023-02-04T09:31:56.448Z,99055.84
2023-02-04T09:34:59.650Z,99051.16
2023-02-04T09:38:02.032Z,99052.52
2023-02-04T09:41:08.682Z,99056.67
2023-02-04T12:13:25.014Z,99197.56
2023-02-04T12:16:29.218Z,99199.79
2023-02-04T12:19:32.671Z,99206.73
2023-02-04T12:22:37.676Z,99204.05
2023-02-04T12:25:51.124Z,99207.25
2023-02-04T12:29:02.417Z,99207.59
2023-02-04T12:32:06.452Z,99215.07
2023-02-04T12:35:14.660Z,99217.84
2023-02-04T12:38:20.917Z,99219.64
2023-02-04T12:41:26.472Z,99220.89
2023-02-04T12:44:35.366Z,99223.37
2023-02-04T12:47:47.775Z,99221.14
2023-02-04T12:50:55.554Z,99224.08
2023-02-04T12:54:03.065Z,99228.14
2023-02-04T12:57:11.319Z,99228.93
2023-02-04T13:00:30.053Z,99234.27
2023-02-04T13:03:36.094Z,99239.51
2023-02-04T13:06:46.863Z,99238.41
2023-02-04T13:09:51.941Z,99246.64
2023-02-04T13:12:59.909Z,99254.45
2023-02-04T13:16:08.213Z,99250.16
2023-02-04T13:19:12.725Z,99259.68
2023-02-04T13:22:17.991Z,99254.96
2023-02-04T13:25:27.429Z,99262.80
2023-02-04T13:28:31.746Z,99264.77
2023-02-04T13:31:41.406Z,99268.08
2023-02-04T13:34:45.998Z,99275.02
2023-02-04T13:37:50.787Z,99281.63
2023-02-04T13:41:04.734Z,99285.02
2023-02-04T13:44:12.738Z,99292.67
2023-02-04T13:47:18.282Z,99294.71
2023-02-04T13:50:26.286Z,99302.51
2023-02-04T13:53:31.821Z,99303.19
2023-02-04T13:56:36.739Z,99302.06
2023-02-04T13:59:41.062Z,99302.77
2023-02-04T14:02:48.289Z,99303.44
2023-02-04T14:05:55.530Z,99308.60
2023-02-04T14:09:00.475Z,99308.39
2023-02-04T14:12:07.283Z,99311.93
2023-02-04T14:15:15.587Z,99314.92
2023-02-04T14:18:19.288Z,99323.42
2023-02-04T14:21:28.003Z,99326.75
2023-02-04T14:24:51.466Z,99322.02
2023-02-04T14:27:58.711Z,99333.66
2023-02-04T14:31:06.105Z,99334.56
2023-02-04T14:34:11.891Z,99341.88
2023-02-04T14:37:16.297Z,99345.56
2023-02-04T14:40:22.315Z,99347.58
2023-02-04T14:43:28.944Z,99344.92
2023-02-04T14:46:35.527Z,99353.16
2023-02-04T14:49:44.704Z,99361.69
2023-02-04T14:52:59.912Z,99362.89
2023-02-04T14:56:08.226Z,99362.63
2023-02-04T14:59:18.320Z,99366.88
2023-02-04T15:02:25.790Z,99372.35
2023-02-04T15:05:40.783Z,99374.27
2023-02-04T15:08:46.486Z,99381.13
2023-02-04T15:11:59.142Z,99390.34
2023-02-04T15:15:06.657Z,99395.38
2023-02-04T15:19:10.614Z,99396.63
2023-02-04T15:22:29.429Z,99395.93
2023-02-04T15:25:39.638Z,99403.06
2023-02-04T15:28:51.689Z,99410.76
2023-02-04T15:32:00.577Z,99411.22
2023-02-04T15:35:09.034Z,99419.23
2023-02-04T15:38:20.053Z,99417.38
2023-02-04T15:41:26.301Z,99422.38
2023-02-04T15:44:41.668Z,99422.63
2023-02-04T15:47:56.413Z,99423.56
2023-02-04T15:51:15.750Z,99426.95
2023-02-04T15:54:26.042Z,99431.48
2023-02-04T15:57:40.362Z,99442.77
2023-02-04T16:01:02.576Z,99447.25
2023-02-04T16:04:12.897Z,99451.34
2023-02-04T16:07:56.917Z,99453.64
2023-02-04T16:11:33.369Z,99451.77
2023-02-04T16:15:27.391Z,99455.73
2023-02-04T16:19:12.247Z,99462.16
2023-02-04T16:23:15.021Z,99470.59
2023-02-04T16:31:38.891Z,99479.81
2023-02-04T16:34:48.498Z,99483.66
2023-02-04T16:37:52.969Z,99482.00
2023-02-04T16:44:28.156Z,99479.86
2023-02-04T16:47:48.204Z,99484.94
2023-02-04T16:51:00.727Z,99484.68
2023-02-04T16:54:12.400Z,99489.23
2023-02-04T16:57:20.020Z,99493.08
2023-02-04T17:00:47.115Z,99495.52
2023-02-04T17:04:07.061Z,99500.75
2023-02-04T17:07:13.012Z,99501.84
2023-02-04T17:19:34.736Z,99507.45
2023-02-04T17:23:01.329Z,99513.02
2023-02-04T17:26:10.444Z,99510.66
2023-02-04T17:29:56.430Z,99511.55
2023-02-04T17:33:28.746Z,99518.70
2023-02-04T17:36:33.636Z,99521.02
2023-02-04T17:50:08.692Z,99525.88
2023-02-04T17:53:11.911Z,99531.82
2023-02-04T17:56:16.157Z,99531.39
2023-02-04T17:59:19.299Z,99539.94
2023-02-04T18:02:32.899Z,99546.21
2023-02-04T18:05:38.997Z,99551.27
2023-02-04T18:08:41.700Z,99554.76
2023-02-04T18:11:50.551Z,99557.03
2023-02-04T18:14:54.969Z,99565.02
2023-02-04T18:18:11.665Z,99568.02
2023-02-04T18:21:24.643Z,99573.24
2023-02-04T18:24:39.206Z,99576.95
2023-02-04T18:27:43.377Z,99578.73
2023-02-04T18:30:53.728Z,99578.10
2023-02-04T18:33:56.848Z,99586.13
2023-02-04T18:37:03.995Z,99582.90
2023-02-04T18:40:10.192Z,99587.81
2023-02-04T18:43:29.474Z,99587.67
2023-02-04T18:46:36.019Z,99588.22
2023-02-04T18:49:43.945Z,99592.23
2023-02-04T18:52:47.979Z,99591.09
2023-02-04T18:55:52.854Z,99594.43
2023-02-04T18:58:57.075Z,99593.98
2023-02-04T19:02:00.346Z,99597.81
2023-02-04T19:05:19.554Z,99601.64
2023-02-04T19:08:43.767Z,99605.69
2023-02-04T19:11:54.396Z,99612.34
2023-02-04T19:15:10.359Z,99607.53
2023-02-04T19:18:41.733Z,99615.70
2023-02-04T19:21:45.858Z,99620.96
2023-02-04T19:24:55.354Z,99615.67
2023-02-04T19:28:02.433Z,99620.89
2023-02-04T19:31:10.833Z,99621.98
2023-02-04T19:34:33.149Z,99625.36
2023-02-04T19:37:40.162Z,99625.39
2023-02-04T19:40:43.903Z,99622.34
2023-02-04T19:43:47.907Z,99624.81
2023-02-04T19:46:55.473Z,99626.08
2023-02-04T19:50:13.362Z,99630.84
2023-02-04T19:53:21.259Z,99634.20
2023-02-04T19:56:39.939Z,99637.91
2023-02-04T19:59:43.645Z,99643.63
2023-02-04T20:03:25.259Z,99643.15
2023-02-04T20:06:37.410Z,99648.25
2023-02-04T20:09:44.317Z,99648.16
2023-02-04T20:12:51.815Z,99646.48
2023-02-04T20:16:01.420Z,99648.63
2023-02-04T20:19:23.113Z,99655.77
2023-02-04T20:22:45.034Z,99656.31
2023-02-04T20:25:52.558Z,99652.92
2023-02-04T20:28:55.658Z,99652.33
2023-02-04T20:31:59.395Z,99653.96
2023-02-04T20:35:12.213Z,99659.21
2023-02-04T20:38:18.374Z,99658.59
2023-02-04T20:41:21.874Z,99658.32
2023-02-04T20:44:39.949Z,99658.05
2023-02-04T20:47:45.332Z,99665.35
2023-02-04T20:50:52.567Z,99673.70
2023-02-04T20:54:06.920Z,99668.58
2023-02-04T20:57:21.639Z,99672.44
2023-02-04T21:00:34.540Z,99674.54
2023-02-04T21:03:38.322Z,99680.63
2023-02-04T21:06:55.243Z,99680.35
2023-02-04T21:09:57.355Z,99682.49
2023-02-04T21:13:06.030Z,99686.36
2023-02-04T21:16:11.687Z,99681.91
2023-02-04T21:19:16.144Z,99682.61
2023-02-04T21:22:22.867Z,99685.27
2023-02-04T21:25:26.485Z,99687.87
2023-02-04T21:28:34.209Z,99693.13
2023-02-04T21:31:38.530Z,99697.69
2023-02-04T21:34:44.504Z,99705.98
2023-02-04T21:37:48.457Z,99709.98
2023-02-04T21:40:53.670Z,99708.09
2023-02-04T21:43:55.879Z,99708.27
2023-02-04T21:46:59.945Z,99706.39
2023-02-04T21:50:02.431Z,99706.73
2023-02-04T21:53:08.222Z,99705.70
2023-02-04T21:56:14.208Z,99702.97
2023-02-04T21:59:21.829Z,99709.73
2023-02-04T22:02:26.509Z,99713.40
2023-02-04T22:05:33.803Z,99711.02
2023-02-04T22:08:36.781Z,99709.96
2023-02-04T22:11:43.030Z,99704.72
2023-02-04T22:14:50.703Z,99711.91
2023-02-04T22:17:56.040Z,99714.60
2023-02-04T22:21:00.117Z,99714.46
2023-02-04T22:24:02.632Z,99717.30
2023-02-04T22:27:06.664Z,99718.80
2023-02-04T22:30:13.419Z,99721.34
2023-02-04T22:33:18.755Z,99714.55
2023-02-04T22:36:21.255Z,99716.41
2023-02-04T22:39:25.539Z,99719.13
2023-02-04T22:42:29.910Z,99711.47
2023-02-04T22:45:32.799Z,99713.98
2023-02-04T22:48:36.412Z,99720.10
2023-02-04T22:51:40.722Z,99716.41
2023-02-04T22:54:50.133Z,99713.58
2023-02-04T22:57:52.864Z,99716.14
2023-02-04T23:01:01.002Z,99716.82
2023-02-04T23:04:06.377Z,99718.14
2023-02-04T23:07:09.726Z,99716.36
2023-02-04T23:10:15.719Z,99717.04
2023-02-04T23:13:40.948Z,99716.50
2023-02-04T23:16:46.054Z,99716.42
2023-02-04T23:19:50.615Z,99718.29
2023-02-04T23:22:55.418Z,99718.63
2023-02-04T23:25:59.926Z,99717.37
2023-02-04T23:29:03.299Z,99719.92
2023-02-04T23:32:05.392Z,99718.56
2023-02-04T23:35:08.808Z,99715.98
2023-02-04T23:38:12.263Z,99719.09
2023-02-04T23:41:16.378Z,99724.80
2023-02-04T23:44:22.497Z,99721.73
2023-02-04T23:47:26.363Z,99719.12
2023-02-04T23:50:30.633Z,99723.75
2023-02-04T23:53:37.506Z,99730.33
2023-02-04T23:56:42.747Z,99731.35
2023-02-04T23:59:50.244Z,99737.86
